Time;durP1;ratioP1;P1;durP2;ratioP2;P2;SDS_P1;SDS_P2;PMS_P1;PMS_P2;Temp;Humidity;BMP_temperature;BMP_pressure;BME280_temperature;BME280_humidity;BME280_pressure;Samples;Min_cycle;Max_cycle;Signal;HPM_P1;HPM_P2
2022/08/23 00:02:32;;;;;;;0.70;0.20;;;23.90;99.90;;;;;;5044765;28;20534;-77
2022/08/23 00:05:00;;;;;;;0.70;0.20;;;23.90;99.90;;;;;;5040018;28;20455;-78
2022/08/23 00:07:37;;;;;;;2.03;1.60;;;23.90;99.90;;;;;;5051847;28;20507;-78
2022/08/23 00:10:09;;;;;;;0.70;0.10;;;23.90;99.90;;;;;;5054098;28;20452;-78
2022/08/23 00:12:37;;;;;;;0.70;0.20;;;23.80;99.90;;;;;;5050147;28;20566;-78
2022/08/23 00:15:07;;;;;;;0.70;0.20;;;23.80;99.90;;;;;;5037257;28;20471;-79
2022/08/23 00:17:36;;;;;;;0.70;0.10;;;23.80;99.90;;;;;;5040949;28;20466;-77
2022/08/23 00:20:06;;;;;;;0.70;0.10;;;23.70;99.90;;;;;;5041968;28;20474;-78
2022/08/23 00:22:35;;;;;;;0.70;0.10;;;23.80;99.90;;;;;;5040679;28;21005;-78
2022/08/23 00:25:04;;;;;;;0.70;0.20;;;23.80;99.90;;;;;;5044817;28;20459;-78
2022/08/23 00:27:33;;;;;;;0.70;0.20;;;23.80;99.90;;;;;;5044818;28;20542;-78
2022/08/23 00:30:02;;;;;;;0.70;0.10;;;23.80;99.90;;;;;;5041752;28;20451;-78
2022/08/23 00:32:33;;;;;;;0.90;0.40;;;23.80;99.90;;;;;;5037813;28;20509;-78
2022/08/23 00:35:02;;;;;;;0.70;0.10;;;23.80;99.90;;;;;;5039249;28;20530;-78
2022/08/23 00:37:32;;;;;;;0.70;0.17;;;23.80;99.90;;;;;;5042528;28;20494;-78
2022/08/23 00:40:00;;;;;;;0.70;0.20;;;23.80;99.90;;;;;;5019170;28;20451;-78
2022/08/23 00:48:13;;;;;;;0.70;0.10;;;23.70;99.90;;;;;;5040786;28;20447;-78
2022/08/23 00:50:49;;;;;;;0.70;0.20;;;23.80;99.90;;;;;;5043325;28;20522;-78
2022/08/23 00:53:21;;;;;;;0.70;0.20;;;23.80;99.90;;;;;;5042167;28;20984;-78
2022/08/23 00:55:53;;;;;;;0.70;0.10;;;23.80;99.90;;;;;;5043080;28;20542;-78
2022/08/23 00:58:22;;;;;;;0.70;0.20;;;23.80;99.90;;;;;;5038782;28;20496;-79
2022/08/23 01:00:55;;;;;;;0.70;0.10;;;23.80;99.90;;;;;;5039633;28;20444;-78
2022/08/23 01:03:26;;;;;;;0.70;0.20;;;23.80;99.90;;;;;;5040087;28;20475;-78
2022/08/23 01:06:01;;;;;;;0.70;0.23;;;23.80;99.90;;;;;;5040755;28;20470;-78
2022/08/23 01:08:31;;;;;;;0.70;0.10;;;23.70;99.90;;;;;;5039419;28;20509;-78
2022/08/23 01:11:03;;;;;;;0.70;0.13;;;23.70;99.90;;;;;;5040748;28;20946;-78
2022/08/23 01:13:39;;;;;;;0.70;0.13;;;23.60;99.90;;;;;;5039748;28;20467;-78
2022/08/23 01:16:14;;;;;;;0.70;0.10;;;23.60;99.90;;;;;;5040429;28;20483;-78
2022/08/23 01:18:43;;;;;;;0.70;0.20;;;23.60;99.90;;;;;;5040105;28;20456;-78
2022/08/23 01:21:19;;;;;;;0.70;0.10;;;23.50;99.90;;;;;;5037167;28;20483;-78
2022/08/23 01:23:51;;;;;;;0.70;0.10;;;23.40;99.90;;;;;;5037301;28;20459;-78
2022/08/23 01:26:22;;;;;;;0.70;0.17;;;23.30;99.90;;;;;;5038978;28;20444;-78
2022/08/23 01:28:50;;;;;;;0.70;0.17;;;23.30;99.90;;;;;;5039347;28;20452;-78
2022/08/23 01:31:18;;;;;;;0.70;0.10;;;23.20;99.90;;;;;;5038407;28;20462;-78
2022/08/23 01:33:50;;;;;;;0.70;0.20;;;23.20;99.90;;;;;;5038505;28;20479;-78
2022/08/23 01:36:18;;;;;;;0.70;0.20;;;23.10;99.90;;;;;;5039491;28;20502;-78
2022/08/23 01:38:48;;;;;;;0.70;0.10;;;23.20;99.90;;;;;;5039779;28;20550;-78
2022/08/23 01:41:16;;;;;;;0.70;0.20;;;23.20;99.90;;;;;;5039274;28;20431;-78
2022/08/23 01:43:45;;;;;;;0.70;0.10;;;23.30;99.90;;;;;;5037912;28;20475;-78
2022/08/23 01:46:16;;;;;;;0.70;0.20;;;23.30;99.90;;;;;;5038876;28;20448;-77
2022/08/23 01:48:45;;;;;;;0.80;0.50;;;23.30;99.90;;;;;;5036546;28;20806;-77
2022/08/23 01:51:15;;;;;;;0.70;0.10;;;23.30;99.90;;;;;;5036810;28;20450;-77
2022/08/23 01:53:45;;;;;;;0.70;0.20;;;23.30;99.90;;;;;;5036271;28;20897;-77
2022/08/23 01:56:18;;;;;;;0.70;0.10;;;23.20;99.90;;;;;;5037609;28;20479;-78
2022/08/23 01:58:54;;;;;;;0.70;0.20;;;;;;;;;;5036880;28;20459;-78
2022/08/23 02:01:22;;;;;;;0.70;0.20;;;23.20;99.90;;;;;;5037512;28;20456;-78
2022/08/23 02:03:54;;;;;;;0.70;0.10;;;23.20;99.90;;;;;;5036903;28;20813;-78
2022/08/23 02:06:32;;;;;;;0.70;0.20;;;23.20;99.90;;;;;;5034518;28;20454;-79
2022/08/23 02:09:04;;;;;;;0.70;0.20;;;23.10;99.90;;;;;;5039538;28;20802;-77
2022/08/23 02:11:46;;;;;;;0.70;0.10;;;23.10;99.90;;;;;;5046110;28;20996;-78
2022/08/23 02:14:17;;;;;;;0.70;0.20;;;23.10;99.90;;;;;;5048387;28;20483;-79
2022/08/23 02:16:47;;;;;;;0.70;0.17;;;23.10;99.90;;;;;;5042751;28;20483;-78
2022/08/23 02:19:32;;;;;;;0.70;0.10;;;23.10;99.90;;;;;;5053386;28;20447;-78
2022/08/23 02:22:00;;;;;;;0.70;0.10;;;23.10;99.90;;;;;;5052933;28;20462;-78
2022/08/23 02:24:30;;;;;;;0.70;0.10;;;23.10;99.90;;;;;;5040662;28;20463;-78
2022/08/23 02:27:01;;;;;;;0.70;0.20;;;23.10;99.90;;;;;;5043024;28;20440;-78
2022/08/23 02:29:29;;;;;;;0.70;0.10;;;23.10;99.90;;;;;;5040705;28;20486;-78
2022/08/23 02:31:58;;;;;;;0.70;0.20;;;23.10;99.90;;;;;;5036709;28;20849;-78
2022/08/23 02:34:27;;;;;;;0.70;0.20;;;23.10;99.90;;;;;;5034217;28;20480;-77
2022/08/23 02:36:55;;;;;;;0.70;0.10;;;23.00;99.90;;;;;;5032806;28;20554;-78
2022/08/23 02:39:23;;;;;;;0.70;0.13;;;22.90;99.90;;;;;;5034552;28;20448;-78
2022/08/23 02:41:52;;;;;;;0.70;0.20;;;22.90;99.90;;;;;;5035767;28;20456;-78
2022/08/23 02:44:22;;;;;;;0.70;0.10;;;22.80;99.90;;;;;;5029643;28;20492;-78
2022/08/23 02:46:50;;;;;;;0.70;0.20;;;22.70;99.90;;;;;;5025553;28;20436;-78
2022/08/23 02:49:18;;;;;;;0.70;0.10;;;22.70;99.90;;;;;;5035124;28;20482;-79
2022/08/23 02:51:46;;;;;;;0.70;0.20;;;22.60;99.90;;;;;;5030531;28;20451;-78
2022/08/23 02:54:14;;;;;;;0.70;0.17;;;22.60;99.90;;;;;;5032762;28;20456;-79
2022/08/23 02:56:42;;;;;;;0.70;0.20;;;22.60;99.90;;;;;;5032466;28;20476;-79
2022/08/23 02:59:10;;;;;;;0.70;0.20;;;22.60;99.90;;;;;;5030422;28;20814;-78
2022/08/23 03:01:40;;;;;;;0.70;0.20;;;22.50;99.90;;;;;;5028928;28;20833;-79
2022/08/23 03:04:10;;;;;;;0.70;0.20;;;22.60;99.90;;;;;;5032309;28;20456;-79
2022/08/23 03:06:38;;;;;;;0.70;0.20;;;22.50;99.90;;;;;;5035775;28;21070;-79
2022/08/23 03:09:07;;;;;;;0.70;0.20;;;22.60;99.90;;;;;;5034487;28;20436;-79
2022/08/23 03:11:36;;;;;;;0.70;0.10;;;22.60;99.90;;;;;;5032319;28;20466;-78
2022/08/23 03:14:04;;;;;;;0.70;0.10;;;22.50;99.90;;;;;;5028584;28;20591;-78
2022/08/23 03:16:32;;;;;;;0.70;0.20;;;22.50;99.90;;;;;;5033327;28;20472;-79
2022/08/23 03:19:01;;;;;;;0.70;0.20;;;22.50;99.90;;;;;;5030804;28;20444;-79
2022/08/23 03:21:30;;;;;;;0.70;0.10;;;22.60;99.90;;;;;;5034395;28;20426;-79
2022/08/23 03:23:59;;;;;;;0.70;0.20;;;22.60;99.90;;;;;;5043110;28;20464;-79
2022/08/23 03:26:27;;;;;;;0.70;0.20;;;22.60;99.90;;;;;;5046894;28;20439;-79
2022/08/23 03:28:55;;;;;;;0.70;0.10;;;22.50;99.90;;;;;;5046460;28;21171;-79
2022/08/23 03:31:24;;;;;;;0.70;0.20;;;22.50;99.90;;;;;;5047089;28;20439;-79
2022/08/23 03:33:55;;;;;;;0.70;0.20;;;22.40;99.90;;;;;;5043305;28;20530;-79
2022/08/23 03:36:25;;;;;;;0.70;0.17;;;22.30;99.90;;;;;;5047503;28;20484;-79
2022/08/23 03:38:55;;;;;;;0.70;0.20;;;22.30;99.90;;;;;;5032615;28;20926;-79
2022/08/23 03:41:23;;;;;;;0.70;0.10;;;22.10;99.90;;;;;;5031709;28;20451;-79
2022/08/23 03:43:51;;;;;;;0.70;0.20;;;22.10;99.90;;;;;;5029718;28;20491;-78
2022/08/23 03:46:22;;;;;;;0.70;0.20;;;22.00;99.90;;;;;;5030566;28;20456;-79
2022/08/23 03:48:51;;;;;;;0.70;0.10;;;21.80;99.90;;;;;;5035278;28;20446;-78
2022/08/23 03:51:20;;;;;;;0.70;0.20;;;21.80;99.90;;;;;;5038455;28;20953;-78
2022/08/23 03:53:50;;;;;;;0.70;0.20;;;21.70;99.90;;;;;;5040676;28;20491;-78
2022/08/23 03:56:23;;;;;;;0.70;0.10;;;21.60;99.90;;;;;;5041600;28;20465;-78
2022/08/23 03:58:51;;;;;;;0.70;0.20;;;21.60;99.90;;;;;;5040897;28;20450;-79
2022/08/23 04:01:19;;;;;;;0.70;0.20;;;21.60;99.90;;;;;;5041719;28;20470;-78
2022/08/23 04:03:52;;;;;;;0.70;0.20;;;21.50;99.90;;;;;;5041004;28;20653;-78
2022/08/23 04:06:20;;;;;;;0.70;0.20;;;21.50;99.90;;;;;;5040819;28;20962;-78
2022/08/23 04:08:47;;;;;;;0.70;0.10;;;21.50;99.90;;;;;;5041825;28;20459;-78
2022/08/23 04:11:17;;;;;;;0.70;0.10;;;21.50;99.90;;;;;;5041141;28;20726;-78
2022/08/23 04:13:45;;;;;;;0.70;0.20;;;21.40;99.90;;;;;;5040536;28;20455;-78
2022/08/23 04:16:13;;;;;;;0.70;0.20;;;21.40;99.90;;;;;;5040442;28;20456;-78
2022/08/23 04:18:41;;;;;;;0.70;0.20;;;21.40;99.90;;;;;;5039669;28;20482;-79
2022/08/23 04:21:12;;;;;;;0.70;0.20;;;21.50;99.90;;;;;;5039913;28;20455;-79
2022/08/23 04:23:42;;;;;;;0.70;0.20;;;21.50;99.90;;;;;;5045804;28;20452;-78
2022/08/23 04:26:10;;;;;;;0.70;0.20;;;;;;;;;;5041816;28;20550;-78
2022/08/23 04:28:40;;;;;;;0.70;0.10;;;;;;;;;;5043235;28;20530;-79
2022/08/23 04:31:08;;;;;;;0.70;0.20;;;21.60;99.90;;;;;;5043497;28;20954;-78
2022/08/23 04:33:36;;;;;;;0.70;0.20;;;21.60;99.90;;;;;;5032785;28;20479;-78
2022/08/23 04:36:08;;;;;;;0.70;0.20;;;21.50;99.90;;;;;;5038211;28;20806;-77
2022/08/23 04:38:36;;;;;;;0.70;0.20;;;21.50;99.90;;;;;;5038495;28;20562;-78
2022/08/23 04:43:51;;;;;;;0.70;0.20;;;21.50;99.90;;;;;;5044347;28;20894;-78
2022/08/23 04:46:18;;;;;;;0.70;0.20;;;21.50;99.90;;;;;;5055080;22;20496;-68
2022/08/23 04:48:47;;;;;;;0.70;0.20;;;21.50;99.90;;;;;;4996041;28;20445;-68
2022/08/23 04:51:16;;;;;;;0.70;0.20;;;21.40;99.90;;;;;;4995907;28;20540;-69
2022/08/23 04:53:44;;;;;;;0.70;0.20;;;21.40;99.90;;;;;;4995088;28;20437;-68
2022/08/23 04:56:12;;;;;;;0.70;0.10;;;21.40;99.90;;;;;;4995187;28;20469;-69
2022/08/23 04:58:40;;;;;;;0.70;0.20;;;21.40;99.90;;;;;;4994504;28;20511;-68
2022/08/23 05:01:10;;;;;;;0.70;0.20;;;21.30;99.90;;;;;;4994618;28;20973;-70
2022/08/23 05:03:39;;;;;;;0.70;0.20;;;21.30;99.90;;;;;;4977083;28;20529;-70
2022/08/23 05:06:07;;;;;;;0.70;0.40;;;21.20;99.90;;;;;;4980118;28;20820;-69
2022/08/23 05:08:35;;;;;;;0.70;0.10;;;21.30;99.90;;;;;;4994927;28;20445;-71
2022/08/23 05:11:05;;;;;;;0.70;0.20;;;21.20;99.90;;;;;;4993795;28;20449;-70
2022/08/23 05:13:33;;;;;;;0.70;0.20;;;21.20;99.90;;;;;;4994318;28;20453;-71
2022/08/23 05:16:02;;;;;;;0.70;0.10;;;21.30;99.90;;;;;;4993297;28;20547;-70
2022/08/23 05:18:32;;;;;;;0.70;0.10;;;;;;;;;;4994024;28;20481;-71
2022/08/23 05:21:00;;;;;;;0.70;0.10;;;21.20;99.90;;;;;;4995172;28;20517;-70
2022/08/23 05:23:28;;;;;;;0.70;0.10;;;21.20;99.90;;;;;;4995658;28;20955;-69
2022/08/23 05:26:00;;;;;;;0.70;0.10;;;21.40;99.90;;;;;;4995142;28;20457;-73
2022/08/23 05:28:30;;;;;;;0.70;0.20;;;21.40;99.90;;;;;;4994814;28;20441;-74
2022/08/23 05:31:00;;;;;;;0.70;0.20;;;21.50;99.90;;;;;;4976647;28;20449;-71
2022/08/23 05:33:30;;;;;;;0.70;0.10;;;21.60;99.90;;;;;;4990346;28;20438;-72
2022/08/23 05:36:00;;;;;;;0.70;0.20;;;21.60;99.90;;;;;;5005734;28;20521;-71
2022/08/23 05:38:29;;;;;;;0.70;0.20;;;21.60;99.90;;;;;;5006373;28;20488;-69
2022/08/23 05:41:00;;;;;;;0.70;0.20;;;21.60;99.90;;;;;;4996898;28;20461;-71
2022/08/23 05:43:32;;;;;;;0.70;0.20;;;21.50;99.90;;;;;;4990841;28;20536;-70
2022/08/23 05:46:03;;;;;;;0.70;0.20;;;21.50;99.90;;;;;;4995000;28;20482;-70
2022/08/23 05:48:31;;;;;;;0.70;0.20;;;21.50;99.90;;;;;;5009499;28;20443;-69
2022/08/23 05:51:11;;;;;;;0.70;0.20;;;21.50;99.90;;;;;;5013848;28;21037;-71
2022/08/23 05:53:39;;;;;;;0.70;0.20;;;21.50;99.90;;;;;;5010968;28;20440;-72
2022/08/23 05:56:12;;;;;;;0.70;0.10;;;21.50;99.90;;;;;;5012140;28;20472;-70
2022/08/23 05:58:40;;;;;;;0.70;0.10;;;21.50;99.90;;;;;;5009135;28;20484;-70
2022/08/23 06:01:09;;;;;;;0.70;0.30;;;21.60;99.90;;;;;;5013624;28;20939;-70
2022/08/23 06:03:38;;;;;;;0.70;0.10;;;21.60;99.90;;;;;;5013940;28;20444;-69
2022/08/23 06:06:06;;;;;;;0.70;0.20;;;21.70;99.90;;;;;;5012872;28;20468;-73
2022/08/23 06:08:38;;;;;;;14.87;14.00;;;21.70;99.90;;;;;;5013874;28;20440;-70
2022/08/23 06:11:08;;;;;;;0.70;0.10;;;21.70;99.90;;;;;;5013403;28;20506;-70
2022/08/23 06:13:42;;;;;;;13.30;2.67;;;21.60;99.90;;;;;;5013052;28;20823;-70
2022/08/23 06:16:11;;;;;;;0.70;0.20;;;21.60;99.90;;;;;;5012430;28;20473;-70
2022/08/23 06:18:41;;;;;;;0.70;0.10;;;21.60;99.90;;;;;;5013726;28;20487;-70
2022/08/23 06:21:11;;;;;;;0.70;0.20;;;21.60;99.90;;;;;;5013933;28;20448;-70
2022/08/23 06:23:42;;;;;;;0.80;0.30;;;21.60;99.90;;;;;;5013635;28;21006;-70
2022/08/23 06:26:11;;;;;;;0.70;0.10;;;21.50;99.90;;;;;;4997851;28;20479;-72
2022/08/23 06:28:39;;;;;;;0.70;0.20;;;21.50;99.90;;;;;;5010386;28;20814;-71
2022/08/23 06:31:44;;;;;;;0.70;0.10;;;21.50;99.90;;;;;;5013644;28;20440;-70
2022/08/23 06:34:08;;;;;;;0.70;0.10;;;21.60;99.90;;;;;;5013510;28;20451;-71
2022/08/23 06:36:37;;;;;;;0.70;0.10;;;21.40;99.90;;;;;;5012869;28;20476;-71
2022/08/23 06:39:08;;;;;;;0.70;0.10;;;21.70;99.90;;;;;;5014140;28;20480;-72
2022/08/23 06:41:37;;;;;;;0.70;0.13;;;21.70;99.90;;;;;;5009728;28;20539;-72
2022/08/23 06:44:06;;;;;;;0.70;0.10;;;21.70;99.90;;;;;;5008614;28;20476;-68
2022/08/23 06:46:35;;;;;;;0.70;0.20;;;21.80;99.90;;;;;;5012284;28;20575;-70
2022/08/23 06:49:04;;;;;;;0.70;0.10;;;21.80;99.90;;;;;;5022267;28;20440;-72
2022/08/23 06:51:35;;;;;;;0.70;0.20;;;21.90;99.90;;;;;;5014325;28;20456;-72
2022/08/23 06:54:08;;;;;;;0.70;0.10;;;21.90;99.90;;;;;;5020012;28;20462;-71
2022/08/23 06:56:40;;;;;;;0.70;0.10;;;22.10;99.90;;;;;;5015442;28;20490;-71
2022/08/23 06:59:08;;;;;;;0.70;0.10;;;22.10;99.90;;;;;;5020342;28;20492;-71
2022/08/23 07:01:39;;;;;;;0.70;0.20;;;22.20;99.90;;;;;;4998172;28;20449;-70
2022/08/23 07:04:14;;;;;;;0.70;0.10;;;22.20;99.90;;;;;;5012212;28;20876;-71
2022/08/23 07:06:43;;;;;;;0.70;0.20;;;22.20;99.90;;;;;;5012322;28;20491;-70
2022/08/23 07:09:12;;;;;;;0.70;0.10;;;22.30;99.90;;;;;;5013819;28;20485;-70
2022/08/23 07:11:42;;;;;;;0.70;0.20;;;22.30;99.90;;;;;;5013058;28;20531;-71
2022/08/23 07:14:12;;;;;;;0.70;0.20;;;22.40;99.90;;;;;;5012679;28;20563;-70
2022/08/23 07:16:44;;;;;;;0.70;0.20;;;22.40;99.90;;;;;;5011942;28;20483;-70
2022/08/23 07:19:12;;;;;;;0.70;0.20;;;22.40;99.90;;;;;;5012909;28;20567;-70
2022/08/23 07:21:41;;;;;;;0.70;0.20;;;22.50;99.90;;;;;;5012253;28;20455;-71
2022/08/23 07:24:09;;;;;;;0.70;0.10;;;22.50;99.90;;;;;;5008009;28;20461;-70
2022/08/23 07:26:39;;;;;;;0.70;0.20;;;22.60;99.90;;;;;;5009749;28;20496;-69
2022/08/23 07:29:08;;;;;;;0.70;0.20;;;22.70;99.90;;;;;;5012462;28;20533;-71
2022/08/23 07:31:41;;;;;;;0.70;0.20;;;22.70;99.90;;;;;;5010598;28;20472;-70
2022/08/23 07:34:09;;;;;;;0.70;0.10;;;22.70;99.90;;;;;;5009065;28;20875;-70
2022/08/23 07:36:39;;;;;;;0.70;0.20;;;22.80;99.90;;;;;;5012012;28;20465;-73
2022/08/23 07:39:07;;;;;;;0.70;0.20;;;22.90;99.90;;;;;;5009892;28;20485;-70
2022/08/23 07:41:37;;;;;;;0.70;0.20;;;23.00;99.90;;;;;;5007200;28;20535;-71
2022/08/23 07:44:08;;;;;;;0.70;0.20;;;23.00;99.90;;;;;;5016721;28;20490;-71
2022/08/23 07:46:38;;;;;;;0.70;0.20;;;23.10;99.90;;;;;;5011969;28;20484;-70
2022/08/23 07:49:07;;;;;;;0.70;0.10;;;23.10;99.90;;;;;;5007716;28;20464;-70
2022/08/23 07:51:36;;;;;;;0.70;0.20;;;23.10;99.90;;;;;;5005949;28;20460;-70
2022/08/23 07:54:06;;;;;;;0.70;0.30;;;23.20;99.90;;;;;;5004503;28;20829;-72
2022/08/23 07:56:35;;;;;;;0.70;0.10;;;23.30;99.90;;;;;;5011396;28;21057;-71
2022/08/23 07:59:04;;;;;;;0.90;0.40;;;23.30;99.90;;;;;;5011281;28;20484;-70
2022/08/23 08:01:33;;;;;;;0.70;0.20;;;23.30;99.90;;;;;;5010435;28;20547;-71
2022/08/23 08:04:04;;;;;;;0.70;0.20;;;23.30;99.90;;;;;;5010601;28;20448;-72
2022/08/23 08:06:34;;;;;;;0.70;0.10;;;23.30;99.90;;;;;;5009931;28;20470;-70
2022/08/23 08:09:02;;;;;;;0.70;0.10;;;23.40;99.90;;;;;;5008014;28;20547;-71
2022/08/23 08:11:32;;;;;;;2.90;0.40;;;23.50;99.90;;;;;;5010042;28;20994;-70
2022/08/23 08:14:04;;;;;;;0.70;0.20;;;23.50;99.90;;;;;;5008573;28;20553;-70
2022/08/23 08:16:36;;;;;;;0.70;0.20;;;23.60;99.90;;;;;;5010604;28;20464;-69
2022/08/23 08:19:07;;;;;;;0.70;0.10;;;23.70;99.90;;;;;;5012015;28;20499;-67
2022/08/23 08:21:36;;;;;;;0.70;0.20;;;23.80;99.90;;;;;;5012117;28;20916;-69
2022/08/23 08:24:12;;;;;;;0.70;0.20;;;23.80;99.90;;;;;;5003702;28;20436;-70
2022/08/23 08:26:42;;;;;;;0.70;0.10;;;23.80;99.90;;;;;;5020840;28;20460;-70
2022/08/23 08:29:11;;;;;;;0.70;0.20;;;23.80;99.90;;;;;;5030589;28;20500;-72
2022/08/23 08:31:42;;;;;;;0.70;0.20;;;23.90;99.90;;;;;;5025866;28;20502;-71
2022/08/23 08:34:11;;;;;;;0.70;0.10;;;24.00;99.90;;;;;;5025336;28;20479;-70
2022/08/23 08:36:41;;;;;;;0.70;0.20;;;24.00;99.90;;;;;;5019211;28;20460;-71
2022/08/23 08:39:13;;;;;;;0.70;0.10;;;24.00;99.90;;;;;;5012560;28;20512;-70
2022/08/23 08:42:08;;;;;;;0.70;0.10;;;24.00;99.90;;;;;;5017301;28;20503;-70
2022/08/23 08:44:44;;;;;;;0.70;0.10;;;24.10;99.90;;;;;;4999212;28;20532;-69
2022/08/23 08:47:20;;;;;;;0.70;0.10;;;24.20;99.90;;;;;;4996871;28;20481;-68
2022/08/23 08:49:58;;;;;;;0.70;0.20;;;24.40;99.90;;;;;;4996463;28;20437;-71
2022/08/23 08:52:28;;;;;;;0.70;0.20;;;24.40;99.90;;;;;;5003157;28;20452;-72
2022/08/23 08:55:04;;;;;;;0.70;0.10;;;24.40;99.90;;;;;;5015498;28;20483;-71
2022/08/23 08:57:38;;;;;;;0.70;0.20;;;24.50;99.90;;;;;;5015406;28;20843;-72
2022/08/23 09:00:12;;;;;;;0.70;0.20;;;24.70;99.90;;;;;;5015679;28;20483;-73
2022/08/23 09:02:43;;;;;;;0.70;0.10;;;24.70;99.90;;;;;;5006391;28;21062;-71
2022/08/23 09:05:15;;;;;;;0.70;0.10;;;24.70;99.90;;;;;;5016075;28;20476;-72
2022/08/23 09:08:06;;;;;;;0.80;0.30;;;24.80;99.90;;;;;;5015969;28;20475;-70
2022/08/23 09:10:53;;;;;;;0.70;0.20;;;24.80;99.90;;;;;;5010973;28;20591;-69
2022/08/23 09:13:43;;;;;;;0.70;0.20;;;24.80;99.90;;;;;;5015086;28;20480;-70
2022/08/23 09:16:23;;;;;;;0.70;0.20;;;24.90;99.90;;;;;;5015683;28;20472;-72
2022/08/23 09:18:53;;;;;;;0.70;0.10;;;24.90;99.90;;;;;;5009683;28;20468;-72
2022/08/23 09:21:21;;;;;;;0.70;0.20;;;24.90;99.90;;;;;;5017973;28;20476;-71
2022/08/23 09:23:51;;;;;;;0.70;0.10;;;25.10;99.90;;;;;;5015061;28;20507;-71
2022/08/23 09:26:30;;;;;;;2.03;1.70;;;25.20;99.90;;;;;;5015798;28;20464;-70
2022/08/23 09:29:01;;;;;;;0.70;0.20;;;25.20;99.90;;;;;;5012696;28;20495;-72
2022/08/23 09:31:37;;;;;;;0.70;0.20;;;25.30;99.90;;;;;;5014999;28;20432;-72
2022/08/23 09:34:08;;;;;;;0.70;0.10;;;25.40;99.90;;;;;;4996477;28;20556;-73
2022/08/23 09:36:38;;;;;;;0.70;0.20;;;25.40;99.90;;;;;;4996214;28;20850;-71
2022/08/23 09:39:09;;;;;;;0.70;0.10;;;25.50;99.90;;;;;;4995864;28;20485;-70
2022/08/23 09:41:40;;;;;;;0.70;0.10;;;25.60;99.90;;;;;;4995566;28;20485;-68
2022/08/23 09:44:12;;;;;;;0.70;0.10;;;25.60;99.90;;;;;;5011369;28;20527;-72
2022/08/23 09:46:41;;;;;;;0.70;0.20;;;25.70;99.90;;;;;;5014272;28;21021;-71
2022/08/23 09:49:26;;;;;;;0.70;0.20;;;25.80;99.90;;;;;;5014460;28;20523;-72
2022/08/23 09:51:58;;;;;;;0.70;0.10;;;25.90;99.90;;;;;;5012389;28;20452;-74
2022/08/23 09:54:30;;;;;;;0.70;0.10;;;26.10;99.90;;;;;;4995506;28;20458;-73
2022/08/23 09:57:01;;;;;;;0.70;0.17;;;26.20;99.90;;;;;;4995405;28;20473;-73
2022/08/23 09:59:40;;;;;;;0.70;0.10;;;26.30;99.90;;;;;;4994368;28;20449;-72
2022/08/23 10:02:15;;;;;;;0.70;0.10;;;26.30;99.90;;;;;;4996924;28;20463;-75
2022/08/23 10:04:54;;;;;;;0.70;0.10;;;26.50;99.90;;;;;;4994875;28;20467;-73
2022/08/23 10:07:29;;;;;;;0.70;0.10;;;26.50;99.90;;;;;;5006625;28;20460;-72
2022/08/23 10:10:13;;;;;;;0.70;0.20;;;26.60;99.90;;;;;;5014666;28;20436;-73
2022/08/23 10:12:42;;;;;;;0.70;0.20;;;26.70;99.90;;;;;;5008599;28;20466;-76
2022/08/23 10:15:10;;;;;;;0.70;0.20;;;26.70;99.90;;;;;;5011628;28;21005;-75
2022/08/23 10:17:43;;;;;;;0.70;0.20;;;26.80;99.90;;;;;;5006991;28;20464;-74
2022/08/23 10:20:28;;;;;;;0.70;0.20;;;26.80;99.90;;;;;;5013621;28;20492;-74
2022/08/23 10:23:07;;;;;;;0.70;0.10;;;26.90;99.90;;;;;;5012556;28;20452;-72
2022/08/23 10:25:40;;;;;;;0.70;0.20;;;27.00;99.90;;;;;;5013680;28;20444;-74
2022/08/23 10:31:18;;;;;;;0.70;0.20;;;27.20;99.90;;;;;;4993699;28;20469;-75
2022/08/23 10:33:52;;;;;;;0.70;0.20;;;27.40;99.90;;;;;;5006715;28;20463;-74
2022/08/23 10:36:31;;;;;;;0.70;0.20;;;27.50;99.90;;;;;;4997474;28;20487;-74
2022/08/23 10:39:02;;;;;;;0.70;0.10;;;27.60;99.90;;;;;;5012169;28;20447;-75
2022/08/23 10:41:46;;;;;;;0.70;0.20;;;27.70;99.90;;;;;;5012687;28;20506;-73
2022/08/23 10:44:25;;;;;;;0.70;0.20;;;27.70;99.90;;;;;;4992895;28;20798;-73
2022/08/23 10:47:04;;;;;;;0.70;0.20;;;27.90;99.90;;;;;;4993117;28;20484;-74
2022/08/23 10:49:35;;;;;;;0.70;0.10;;;27.90;99.90;;;;;;4993225;28;20960;-74
2022/08/23 10:52:08;;;;;;;1.00;0.73;;;28.00;99.90;;;;;;4994010;28;20505;-74
2022/08/23 10:54:47;;;;;;;0.70;0.20;;;28.10;99.90;;;;;;5012314;28;20527;-74
2022/08/23 10:57:20;;;;;;;0.90;0.60;;;28.10;99.90;;;;;;5017431;28;20475;-73
2022/08/23 10:59:51;;;;;;;0.70;0.20;;;28.10;99.90;;;;;;5022382;28;20810;-73
2022/08/23 11:02:30;;;;;;;0.70;0.20;;;28.10;99.90;;;;;;5014288;28;20493;-73
2022/08/23 11:05:17;;;;;;;0.70;0.10;;;28.20;99.90;;;;;;5002962;28;20444;-72
2022/08/23 11:07:57;;;;;;;0.70;0.10;;;28.30;99.90;;;;;;4995546;28;20556;-73
2022/08/23 11:10:31;;;;;;;0.70;0.10;;;28.40;99.90;;;;;;5001196;28;20433;-74
2022/08/23 11:13:01;;;;;;;0.70;0.20;;;28.50;99.90;;;;;;5003252;28;20452;-74
2022/08/23 11:15:38;;;;;;;0.70;0.10;;;28.50;99.90;;;;;;4998994;28;20802;-73
2022/08/23 11:18:32;;;;;;;0.70;0.20;;;28.40;99.90;;;;;;5001184;28;20823;-73
2022/08/23 11:21:06;;;;;;;0.70;0.10;;;28.50;99.90;;;;;;5025326;28;20488;-74
2022/08/23 11:23:48;;;;;;;0.70;0.20;;;28.70;99.90;;;;;;5020627;28;20448;-73
2022/08/23 11:27:02;;;;;;;0.70;0.20;;;28.80;99.90;;;;;;5016399;28;20484;-74
2022/08/23 11:29:36;;;;;;;0.70;0.20;;;28.80;99.90;;;;;;4974187;28;20436;-74
2022/08/23 11:32:22;;;;;;;0.70;0.20;;;28.90;99.90;;;;;;5012154;28;20871;-74
2022/08/23 11:35:07;;;;;;;0.70;0.20;;;31.10;99.90;;;;;;5011527;28;20452;-74
2022/08/23 11:37:55;;;;;;;0.70;0.20;;;29.10;99.90;;;;;;5011588;28;20502;-74
2022/08/23 11:40:58;;;;;;;0.70;0.20;;;29.00;99.90;;;;;;5012164;28;20465;-75
2022/08/23 11:43:33;;;;;;;0.70;0.20;;;29.10;99.90;;;;;;5000437;28;20912;-75
2022/08/23 11:46:29;;;;;;;0.70;0.20;;;29.20;99.90;;;;;;5010626;28;20450;-75
2022/08/23 11:49:18;;;;;;;1.20;0.67;;;29.20;99.90;;;;;;5012382;28;20495;-75
2022/08/23 11:51:55;;;;;;;0.70;0.20;;;29.30;99.90;;;;;;5009671;28;20448;-76
2022/08/23 11:54:51;;;;;;;0.70;0.27;;;29.40;99.90;;;;;;4993119;28;20452;-74
2022/08/23 11:57:32;;;;;;;0.70;0.20;;;29.60;99.90;;;;;;5005615;28;20808;-74
2022/08/23 12:00:18;;;;;;;0.80;0.43;;;29.60;99.90;;;;;;5012694;28;20448;-74
2022/08/23 12:03:04;;;;;;;0.70;0.20;;;29.70;99.90;;;;;;5012032;28;20466;-74
2022/08/23 12:06:04;;;;;;;0.70;0.20;;;29.90;99.90;;;;;;5003075;28;20866;-75
2022/08/23 12:08:55;;;;;;;0.70;0.10;;;29.90;99.90;;;;;;5005953;28;20499;-74
2022/08/23 12:11:24;;;;;;;0.70;0.20;;;30.00;99.90;;;;;;5004738;28;20511;-74
2022/08/23 12:13:59;;;;;;;0.70;0.20;;;30.00;99.90;;;;;;5005656;28;20451;-74
2022/08/23 12:16:37;;;;;;;0.70;0.20;;;30.10;99.90;;;;;;5005975;28;20490;-73
2022/08/23 12:19:28;;;;;;;0.70;0.20;;;30.10;99.90;;;;;;5013136;28;20592;-73
2022/08/23 12:21:58;;;;;;;0.70;0.20;;;30.20;99.90;;;;;;5017802;28;20501;-75
2022/08/23 12:24:32;;;;;;;0.70;0.10;;;30.20;99.90;;;;;;5010572;28;20455;-75
2022/08/23 12:27:07;;;;;;;0.70;0.10;;;30.00;99.90;;;;;;5016734;28;20472;-75
2022/08/23 12:29:47;;;;;;;0.70;0.17;;;29.90;99.90;;;;;;5008302;28;20448;-74
2022/08/23 12:32:21;;;;;;;0.70;0.20;;;29.90;99.90;;;;;;5012014;28;21846;-74
2022/08/23 12:35:03;;;;;;;0.70;0.10;;;29.90;99.90;;;;;;5012643;28;20466;-75
2022/08/23 12:37:39;;;;;;;0.70;0.20;;;30.00;99.90;;;;;;5015161;28;20462;-74
2022/08/23 12:40:14;;;;;;;0.70;0.10;;;30.10;99.90;;;;;;5012664;28;20468;-75
2022/08/23 12:42:42;;;;;;;0.70;0.20;;;30.20;99.90;;;;;;5009003;28;20483;-73
2022/08/23 12:45:15;;;;;;;0.80;0.40;;;30.20;99.90;;;;;;4998036;28;20456;-74
2022/08/23 12:47:54;;;;;;;0.70;0.20;;;30.20;99.90;;;;;;4995669;28;20577;-73
2022/08/23 12:50:27;;;;;;;0.70;0.20;;;30.10;99.90;;;;;;4996271;28;20453;-74
2022/08/23 12:53:05;;;;;;;0.70;0.17;;;30.10;99.90;;;;;;4998127;28;20535;-72
2022/08/23 12:55:38;;;;;;;0.70;0.20;;;30.10;99.90;;;;;;5010935;28;20467;-72
2022/08/23 12:58:07;;;;;;;0.70;0.20;;;30.20;99.90;;;;;;5013513;28;20560;-73
2022/08/23 13:00:41;;;;;;;0.70;0.20;;;30.20;99.90;;;;;;5015738;28;20483;-72
2022/08/23 13:03:17;;;;;;;0.70;0.20;;;30.40;99.90;;;;;;5009068;28;20480;-73
2022/08/23 13:05:53;;;;;;;0.90;0.20;;;30.40;99.90;;;;;;5016202;28;20962;-72
2022/08/23 13:08:26;;;;;;;0.70;0.30;;;30.40;99.90;;;;;;5009822;28;20787;-72
2022/08/23 13:11:03;;;;;;;0.70;0.10;;;;;;;;;;5016647;28;20803;-74
2022/08/23 13:13:37;;;;;;;0.70;0.20;;;30.60;99.90;;;;;;5014786;28;20502;-73
2022/08/23 13:16:24;;;;;;;0.90;0.30;;;30.80;99.90;;;;;;5009837;28;20476;-72
2022/08/23 13:18:55;;;;;;;0.70;0.20;;;30.80;99.90;;;;;;4995832;28;20477;-71
2022/08/23 13:21:29;;;;;;;0.70;0.10;;;30.80;99.90;;;;;;4995512;28;20446;-72
2022/08/23 13:24:28;;;;;;;0.70;0.20;;;30.90;99.90;;;;;;4994394;28;20488;-73
2022/08/23 13:27:28;;;;;;;0.70;0.20;;;30.90;99.90;;;;;;4994973;28;20492;-74
2022/08/23 13:30:23;;;;;;;0.80;0.30;;;31.00;99.90;;;;;;5008065;28;20559;-74